createdAt,value
2019-02-07T05:43:40.714Z,105.43
2019-02-07T05:46:26.499Z,108.07
2019-02-07T05:49:25.087Z,101.22
2019-02-07T05:52:08.639Z,148.17
2019-02-07T05:55:02.851Z,158.80
2019-02-07T05:57:40.812Z,127.82
2019-02-07T06:00:28.523Z,146.07
2019-02-07T06:03:11.878Z,101.72
2019-02-07T06:05:59.090Z,73.30
2019-02-07T06:08:56.580Z,87.12
2019-02-07T06:11:47.887Z,100.02
2019-02-07T06:14:48.131Z,94.25
2019-02-07T06:17:48.546Z,73.57
2019-02-07T06:20:43.127Z,99.32
2019-02-07T06:23:32.787Z,61.58
2019-02-07T06:26:19.844Z,101.75
2019-02-07T06:29:00.664Z,50.15
2019-02-07T06:31:58.243Z,57.85
2019-02-07T06:34:58.967Z,52.48
2019-02-07T06:37:46.100Z,52.88
2019-02-07T06:40:38.543Z,66.67
2019-02-07T06:43:32.632Z,52.08
2019-02-07T06:46:30.184Z,45.38
2019-02-07T06:49:12.600Z,48.78
2019-02-07T06:51:59.681Z,69.20
2019-02-07T06:54:57.856Z,53.42
2019-02-07T06:57:45.965Z,50.25
2019-02-07T07:00:35.221Z,44.38
2019-02-07T07:03:27.733Z,43.70
2019-02-07T07:06:21.758Z,46.60
2019-02-07T07:09:02.667Z,44.27
2019-02-07T07:11:42.646Z,47.23
2019-02-07T07:14:37.445Z,46.15
2019-02-07T07:17:33.366Z,48.00
2019-02-07T07:20:24.773Z,42.70
2019-02-07T07:23:25.090Z,43.02
2019-02-07T07:26:15.297Z,43.55
2019-02-07T07:29:03.895Z,42.83
2019-02-07T07:31:55.210Z,40.45
2019-02-07T07:34:46.319Z,39.30
2019-02-07T07:37:40.749Z,36.75
2019-02-07T07:40:29.369Z,35.20
2019-02-07T07:43:23.938Z,37.78
2019-02-07T07:46:10.973Z,33.33
2019-02-07T07:48:58.526Z,35.88
2019-02-07T07:51:49.739Z,34.05
2019-02-07T07:54:39.984Z,34.92
2019-02-07T07:57:27.468Z,33.07
2019-02-07T08:00:14.499Z,34.90
2019-02-07T08:03:02.818Z,35.27
2019-02-07T08:05:54.949Z,30.15
2019-02-07T08:08:44.014Z,32.33
2019-02-07T08:11:36.342Z,30.07
2019-02-07T08:14:14.820Z,29.40
2019-02-07T08:17:09.186Z,29.27
2019-02-07T08:19:56.580Z,30.73
2019-02-07T08:22:47.992Z,28.30
2019-02-07T08:25:51.630Z,28.53
2019-02-07T08:28:42.825Z,28.73
2019-02-07T08:31:25.029Z,28.03
2019-02-07T08:34:11.058Z,27.40
2019-02-07T08:37:14.456Z,27.57
2019-02-07T08:40:14.815Z,24.30
2019-02-07T08:43:02.065Z,26.60
2019-02-07T08:45:50.271Z,25.20
2019-02-07T08:48:42.170Z,26.03
2019-02-07T08:51:28.954Z,25.90
2019-02-07T08:54:18.751Z,27.23
2019-02-07T08:57:11.357Z,25.37
2019-02-07T08:59:59.659Z,26.70
2019-02-07T09:02:51.803Z,26.43
2019-02-07T09:05:40.602Z,28.23
2019-02-07T09:08:41.233Z,27.27
2019-02-07T09:11:28.464Z,26.23
2019-02-07T09:14:24.596Z,29.07
2019-02-07T09:17:14.595Z,29.30
2019-02-07T09:20:12.095Z,31.27
2019-02-07T09:23:06.874Z,30.63
2019-02-07T09:25:53.806Z,34.57
2019-02-07T09:28:40.681Z,33.70
2019-02-07T09:31:27.756Z,33.23
2019-02-07T09:34:07.669Z,28.60
2019-02-07T09:36:58.727Z,26.87
2019-02-07T09:39:45.564Z,31.47
2019-02-07T09:42:26.688Z,29.37
2019-02-07T09:45:24.410Z,28.97
2019-02-07T09:48:07.920Z,30.23
2019-02-07T09:50:54.706Z,29.67
2019-02-07T09:53:45.732Z,29.53
2019-02-07T09:56:32.855Z,30.83
2019-02-07T09:59:21.162Z,29.13
2019-02-07T10:01:58.635Z,33.17
2019-02-07T10:04:49.919Z,32.67
2019-02-07T10:07:47.169Z,37.90
2019-02-07T10:10:34.725Z,33.83
2019-02-07T10:13:38.621Z,33.43
2019-02-07T10:16:26.060Z,35.90
2019-02-07T10:19:20.337Z,32.80
2019-02-07T10:22:02.117Z,33.50
2019-02-07T10:24:49.134Z,33.10
2019-02-07T10:27:36.220Z,32.87
2019-02-07T10:30:26.663Z,30.27
2019-02-07T10:33:29.924Z,29.87
2019-02-07T10:36:23.662Z,34.70
2019-02-07T10:39:06.872Z,36.37
2019-02-07T10:42:13.220Z,35.00
2019-02-07T10:45:16.608Z,34.93
2019-02-07T10:48:03.544Z,35.00
2019-02-07T10:50:43.406Z,38.53
2019-02-07T11:05:06.276Z,38.10
2019-02-07T11:08:01.908Z,35.50
2019-02-07T11:10:58.116Z,38.63
2019-02-07T11:13:58.555Z,37.07
2019-02-07T11:16:45.624Z,36.63
2019-02-07T11:19:32.605Z,39.53
2019-02-07T11:22:22.995Z,42.33
2019-02-07T11:25:12.668Z,41.03
2019-02-07T11:27:51.029Z,44.60
2019-02-07T11:30:38.174Z,44.60
2019-02-07T11:33:14.198Z,43.43
2019-02-07T11:36:08.235Z,45.10
2019-02-07T11:38:55.288Z,43.03
2019-02-07T11:41:46.975Z,38.43
2019-02-07T11:44:38.872Z,39.57
2019-02-07T11:47:39.440Z,41.67
2019-02-07T11:50:42.093Z,39.20
2019-02-07T11:53:33.224Z,41.93
2019-02-07T11:56:30.635Z,37.70
2019-02-07T11:59:33.102Z,43.93
2019-02-07T12:02:33.618Z,39.03
2019-02-07T12:05:39.987Z,41.13
2019-02-07T12:08:37.486Z,39.47
2019-02-07T12:11:23.931Z,38.93
2019-02-07T12:14:10.761Z,36.33
2019-02-07T12:17:02.716Z,37.00
2019-02-07T12:19:49.763Z,36.83
2019-02-07T12:22:37.441Z,37.40
2019-02-07T12:25:25.959Z,37.80
2019-02-07T12:28:11.949Z,36.50
2019-02-07T12:30:59.062Z,38.93
2019-02-07T12:33:39.753Z,33.77
2019-02-07T12:36:26.957Z,31.53
2019-02-07T12:39:05.605Z,35.10
2019-02-07T12:41:51.792Z,31.60
2019-02-07T12:44:49.152Z,35.13
2019-02-07T12:47:37.436Z,34.20
2019-02-07T12:50:25.419Z,35.33
2019-02-07T12:53:11.599Z,34.00
2019-02-07T12:55:58.764Z,31.43
2019-02-07T12:59:02.827Z,31.13
2019-02-07T13:02:00.292Z,33.10
2019-02-07T13:04:49.634Z,32.00
2019-02-07T13:07:47.265Z,30.33
2019-02-07T13:10:39.069Z,32.33
2019-02-07T13:13:16.771Z,32.40
2019-02-07T13:16:16.969Z,31.33
2019-02-07T13:19:08.133Z,33.00
2019-02-07T13:22:01.079Z,30.80
2019-02-07T13:24:47.552Z,32.57
2019-02-07T13:27:29.067Z,31.03
2019-02-07T13:30:16.021Z,33.83
2019-02-07T13:33:10.693Z,34.33
2019-02-07T13:35:52.748Z,32.90
2019-02-07T13:38:41.012Z,35.87
2019-02-07T13:41:38.276Z,33.57
2019-02-07T13:44:29.617Z,31.03
2019-02-07T13:47:29.816Z,35.60
2019-02-07T13:50:21.547Z,28.87
2019-02-07T13:53:21.881Z,31.50
2019-02-07T13:56:11.603Z,34.93
2019-02-07T13:58:59.905Z,32.20
2019-02-07T14:01:49.296Z,33.23
2019-02-07T14:04:37.520Z,37.53
2019-02-07T14:07:39.899Z,32.37
2019-02-07T14:10:30.365Z,37.10
2019-02-07T14:13:17.946Z,33.47
2019-02-07T14:16:04.754Z,34.00
2019-02-07T14:18:53.066Z,34.57
2019-02-07T14:21:38.012Z,39.00
2019-02-07T14:24:22.023Z,39.23
2019-02-07T14:27:19.201Z,43.50
2019-02-07T14:30:16.458Z,42.23
2019-02-07T14:33:07.748Z,41.27
2019-02-07T14:36:09.815Z,43.30
2019-02-07T14:38:58.115Z,42.47
2019-02-07T14:41:52.205Z,43.50
2019-02-07T14:44:44.553Z,44.40
2019-02-07T14:47:14.217Z,49.30
2019-02-07T14:49:43.437Z,46.47
2019-02-07T14:52:13.643Z,45.00
2019-02-07T14:54:42.851Z,47.30
2019-02-07T14:57:12.149Z,47.37
2019-02-07T14:59:41.501Z,49.37
2019-02-07T15:02:10.886Z,48.73
2019-02-07T15:04:40.082Z,47.20
2019-02-07T15:07:09.342Z,48.80
2019-02-07T15:09:40.783Z,46.43
2019-02-07T15:12:09.969Z,52.80
2019-02-07T15:14:39.342Z,55.90
2019-02-07T15:17:09.188Z,48.70
2019-02-07T15:19:38.383Z,52.03
2019-02-07T15:22:09.245Z,50.83
2019-02-07T15:24:38.417Z,53.97
2019-02-07T15:27:07.657Z,57.03
2019-02-07T15:29:36.942Z,54.70
2019-02-07T15:32:06.546Z,57.43
2019-02-07T15:34:35.854Z,52.93
2019-02-07T15:37:05.416Z,56.37
2019-02-07T15:39:34.937Z,66.87
2019-02-07T15:42:04.704Z,57.47
2019-02-07T15:44:34.195Z,59.13
2019-02-07T15:47:03.576Z,63.77
2019-02-07T15:49:32.750Z,60.33
2019-02-07T15:52:01.962Z,61.07
2019-02-07T15:54:31.812Z,60.23
2019-02-07T15:57:01.159Z,67.03
2019-02-07T15:59:45.110Z,60.13
2019-02-07T16:02:36.115Z,68.67
2019-02-07T16:05:09.139Z,67.93
2019-02-07T16:07:38.982Z,63.40
2019-02-07T16:10:12.041Z,64.47
2019-02-07T16:12:41.352Z,71.10
2019-02-07T16:15:11.984Z,71.77
2019-02-07T16:17:41.562Z,64.00
2019-02-07T16:20:14.805Z,66.37
2019-02-07T16:22:44.498Z,63.93
2019-02-07T16:25:14.990Z,67.30
2019-02-07T16:27:44.306Z,69.67
2019-02-07T16:30:15.333Z,71.00
2019-02-07T16:32:45.227Z,67.93
2019-02-07T16:35:15.984Z,66.80
2019-02-07T16:37:45.340Z,70.03
2019-02-07T16:40:15.680Z,64.40
2019-02-07T16:42:45.035Z,62.90
2019-02-07T16:45:17.597Z,61.73
2019-02-07T16:47:46.866Z,63.90
2019-02-07T16:50:18.134Z,60.77
2019-02-07T16:52:47.640Z,66.47
2019-02-07T16:55:17.538Z,66.97
2019-02-07T16:57:47.188Z,64.90
2019-02-07T17:00:19.921Z,68.37
2019-02-07T17:02:49.269Z,69.87
2019-02-07T17:05:21.292Z,73.07
2019-02-07T17:07:50.602Z,69.60
2019-02-07T17:10:22.535Z,66.93
2019-02-07T17:12:53.175Z,67.77
2019-02-07T17:15:22.822Z,65.73
2019-02-07T17:17:52.549Z,58.67
2019-02-07T17:20:27.059Z,54.90
2019-02-07T17:22:56.849Z,60.33
2019-02-07T17:25:27.611Z,73.37
2019-02-07T17:27:56.931Z,66.37
2019-02-07T17:30:26.229Z,59.13
2019-02-07T17:32:55.805Z,61.47
2019-02-07T17:35:26.110Z,58.53
2019-02-07T17:37:55.410Z,59.60
2019-02-07T17:40:25.504Z,63.67
2019-02-07T17:42:55.219Z,58.10
2019-02-07T17:45:26.396Z,55.70
2019-02-07T17:47:55.978Z,46.80
2019-02-07T17:50:28.106Z,45.63
2019-02-07T17:52:57.899Z,37.40
2019-02-07T17:55:28.042Z,33.10
2019-02-07T17:57:57.399Z,30.40
2019-02-07T18:00:40.146Z,27.70
2019-02-07T18:03:09.425Z,27.67
2019-02-07T18:05:38.747Z,22.60
2019-02-07T18:08:08.736Z,26.37
2019-02-07T18:10:38.165Z,21.97
2019-02-07T18:13:08.332Z,18.83
2019-02-07T18:15:37.538Z,15.83
2019-02-07T18:18:07.288Z,14.83
2019-02-07T18:20:36.542Z,14.77
2019-02-07T18:23:06.416Z,13.27
2019-02-07T18:25:35.978Z,12.67
2019-02-07T18:28:05.682Z,15.17
2019-02-07T18:30:34.989Z,9.47
2019-02-07T18:33:04.782Z,8.93
2019-02-07T18:35:34.058Z,9.70
2019-02-07T18:38:03.345Z,7.47
2019-02-07T18:40:32.650Z,13.40
2019-02-07T18:43:03.233Z,10.17
2019-02-07T18:45:32.533Z,7.13
2019-02-07T18:48:01.858Z,8.73
2019-02-07T18:50:34.103Z,8.93
2019-02-07T18:53:03.650Z,7.13
2019-02-07T18:55:33.000Z,8.07
2019-02-07T18:58:03.272Z,7.13
2019-02-07T19:00:35.522Z,7.00
2019-02-07T19:03:06.839Z,7.07
2019-02-07T19:05:36.925Z,5.63
2019-02-07T19:08:06.879Z,6.07
2019-02-07T19:10:36.591Z,5.40
2019-02-07T19:13:06.201Z,6.00
2019-02-07T19:15:38.979Z,7.67
2019-02-07T19:18:08.344Z,6.23
2019-02-07T19:20:37.814Z,7.63
2019-02-07T19:23:07.822Z,8.70
2019-02-07T19:25:37.226Z,7.07
2019-02-07T19:28:07.700Z,6.83
2019-02-07T19:30:37.071Z,7.70
2019-02-07T19:33:06.792Z,5.90
2019-02-07T19:35:37.655Z,8.53
2019-02-07T19:38:07.615Z,6.03
2019-02-07T19:40:37.481Z,7.10
2019-02-07T19:43:06.791Z,6.07
2019-02-07T19:45:36.171Z,7.27
2019-02-07T19:48:06.024Z,10.37
2019-02-07T19:50:35.229Z,12.83
2019-02-07T19:53:04.908Z,13.13
2019-02-07T19:55:35.216Z,10.63
2019-02-07T19:58:05.171Z,11.17
2019-02-07T20:00:35.288Z,10.20
2019-02-07T20:03:05.193Z,12.82
2019-02-07T20:05:34.689Z,12.27
2019-02-07T20:08:04.419Z,9.63
2019-02-07T20:10:34.319Z,12.10
2019-02-07T20:13:03.620Z,12.97
2019-02-07T20:15:38.407Z,9.10
2019-02-07T20:18:09.889Z,9.97
2019-02-07T20:20:39.786Z,10.47
2019-02-07T20:23:09.139Z,9.87
2019-02-07T20:25:40.554Z,15.37
2019-02-07T20:28:09.862Z,10.17
2019-02-07T20:30:41.296Z,11.30
2019-02-07T20:33:11.304Z,9.70
2019-02-07T20:35:40.589Z,9.63
2019-02-07T20:38:11.187Z,11.00
2019-02-07T20:40:40.487Z,11.30
2019-02-07T20:43:09.997Z,9.63
2019-02-07T20:45:39.309Z,10.37
2019-02-07T20:48:10.103Z,15.27
2019-02-07T20:50:39.351Z,13.27
2019-02-07T20:53:10.568Z,14.97
2019-02-07T20:55:41.026Z,14.93
2019-02-07T20:58:10.613Z,13.20
2019-02-07T21:00:40.210Z,13.67
2019-02-07T21:03:09.898Z,13.47
2019-02-07T21:05:39.777Z,15.67
2019-02-07T21:08:09.130Z,14.27
2019-02-07T21:10:39.010Z,12.53
2019-02-07T21:13:10.013Z,11.40
2019-02-07T21:15:39.435Z,12.00
2019-02-07T21:18:10.355Z,13.97
2019-02-07T21:20:39.622Z,12.97
2019-02-07T21:23:08.915Z,13.70
2019-02-07T21:25:44.429Z,14.80
2019-02-07T21:28:13.795Z,17.10
2019-02-07T21:30:43.255Z,13.27
2019-02-07T21:33:12.844Z,15.67
2019-02-07T21:35:42.502Z,16.67
2019-02-07T21:38:11.827Z,16.43
2019-02-07T21:40:41.254Z,15.23
2019-02-07T21:43:10.906Z,15.93
2019-02-07T21:45:40.271Z,18.20
2019-02-07T21:48:11.332Z,16.07
2019-02-07T21:50:40.717Z,17.00
2019-02-07T21:53:09.969Z,18.97
2019-02-07T21:55:39.315Z,18.80
2019-02-07T21:58:09.592Z,18.27
2019-02-07T22:00:41.134Z,16.33
2019-02-07T22:03:12.742Z,15.40
2019-02-07T22:05:43.270Z,15.27
2019-02-07T22:08:12.795Z,18.82
2019-02-07T22:10:41.972Z,16.97
2019-02-07T22:13:11.652Z,19.03
2019-02-07T22:15:40.821Z,20.30
2019-02-07T22:18:11.252Z,20.53
2019-02-07T22:20:40.498Z,21.33
2019-02-07T22:23:09.763Z,19.97
2019-02-07T22:25:39.104Z,23.43
2019-02-07T22:28:09.839Z,22.00
